createdAt,value
2022-11-02T00:04:40.047Z,14.38
2022-11-02T00:09:41.539Z,14.33
2022-11-02T00:14:43.029Z,14.35
2022-11-02T00:19:44.812Z,14.29
2022-11-02T00:24:46.487Z,14.45
2022-11-02T00:29:48.108Z,14.41
2022-11-02T00:34:49.634Z,14.56
2022-11-02T00:39:51.201Z,14.41
2022-11-02T00:44:52.770Z,14.40
2022-11-02T00:49:54.515Z,14.30
2022-11-02T00:54:56.176Z,14.20
2022-11-02T00:59:57.849Z,14.16
2022-11-02T01:04:59.493Z,14.02
2022-11-02T01:10:01.689Z,14.06
2022-11-02T01:15:03.796Z,14.08
2022-11-02T01:20:06.061Z,14.12
2022-11-02T01:25:08.066Z,14.19
2022-11-02T01:30:10.339Z,14.18
2022-11-02T01:35:11.940Z,14.28
2022-11-02T01:40:13.568Z,14.32
2022-11-02T01:45:15.432Z,14.28
2022-11-02T01:50:27.712Z,14.09
2022-11-02T01:55:34.569Z,13.66
2022-11-02T02:00:36.249Z,13.55
2022-11-02T02:05:45.380Z,13.39
2022-11-02T02:10:56.880Z,13.36
2022-11-02T02:16:20.996Z,13.39
2022-11-02T02:22:06.091Z,13.20
2022-11-02T02:27:18.290Z,13.06
2022-11-02T02:32:36.443Z,12.91
2022-11-02T02:38:01.916Z,12.83
2022-11-02T02:43:13.071Z,12.74
2022-11-02T02:48:19.316Z,12.71
2022-11-02T02:53:35.947Z,12.55
2022-11-02T02:58:45.993Z,12.20
2022-11-02T03:03:47.808Z,11.88
2022-11-02T03:09:02.231Z,11.78
2022-11-02T03:14:17.049Z,11.71
2022-11-02T03:19:37.389Z,11.65
2022-11-02T03:24:52.966Z,11.78
2022-11-02T03:30:06.546Z,11.76
2022-11-02T03:35:18.962Z,11.69
2022-11-02T03:40:32.267Z,11.65
2022-11-02T03:45:41.616Z,11.72
2022-11-02T03:50:50.194Z,11.86
2022-11-02T03:56:00.126Z,11.73
2022-11-02T04:01:07.122Z,11.75
2022-11-02T04:06:09.819Z,11.82
2022-11-02T04:11:12.183Z,11.89
2022-11-02T04:16:16.819Z,11.85
2022-11-02T04:21:18.499Z,11.80
2022-11-02T04:26:20.527Z,11.90
2022-11-02T04:31:22.548Z,11.93
2022-11-02T04:36:24.319Z,12.06
2022-11-02T04:41:30.120Z,12.48
2022-11-02T04:46:35.011Z,13.13
2022-11-02T04:51:39.381Z,13.13
2022-11-02T04:56:42.920Z,12.94
2022-11-02T05:01:45.996Z,12.60
2022-11-02T05:06:49.467Z,11.97
2022-11-02T05:11:52.576Z,11.59
2022-11-02T05:16:54.467Z,11.78
2022-11-02T05:21:56.168Z,11.43
2022-11-02T05:26:59.708Z,11.23
2022-11-02T05:32:02.090Z,11.18
2022-11-02T05:37:03.767Z,11.10
2022-11-02T05:42:05.566Z,11.17
2022-11-02T05:47:07.249Z,11.11
2022-11-02T05:52:08.791Z,10.97
2022-11-02T05:57:10.575Z,10.70
2022-11-02T06:02:12.077Z,10.42
2022-11-02T06:07:13.641Z,10.17
2022-11-02T06:12:15.159Z,10.22
2022-11-02T06:17:16.812Z,10.32
2022-11-02T06:22:18.358Z,10.34
2022-11-02T06:27:19.908Z,10.31
2022-11-02T06:32:22.644Z,10.40
2022-11-02T06:37:24.150Z,10.46
2022-11-02T06:42:25.806Z,10.66
2022-11-02T06:47:30.303Z,10.64
2022-11-02T06:52:32.261Z,10.82
2022-11-02T06:57:38.893Z,11.68
2022-11-02T07:02:40.447Z,11.90
2022-11-02T07:07:41.941Z,12.13
2022-11-02T07:12:43.603Z,11.89
2022-11-02T07:17:45.525Z,12.05
2022-11-02T07:22:55.914Z,12.40
2022-11-02T07:27:58.305Z,13.29
2022-11-02T07:33:00.419Z,14.01
2022-11-02T07:38:04.506Z,13.98
2022-11-02T07:43:07.490Z,14.03
2022-11-02T07:48:32.183Z,13.84
2022-11-02T07:53:34.298Z,14.57
2022-11-02T07:58:38.530Z,14.76
2022-11-02T08:03:40.353Z,15.22
2022-11-02T08:08:41.944Z,15.22
2022-11-02T08:13:43.433Z,15.77
2022-11-02T08:18:44.997Z,15.94
2022-11-02T08:23:48.975Z,16.44
2022-11-02T08:28:50.877Z,16.81
2022-11-02T08:33:52.478Z,16.99
2022-11-02T08:38:54.012Z,16.76
2022-11-02T08:43:55.561Z,16.60
2022-11-02T08:48:57.140Z,16.68
2022-11-02T08:53:58.807Z,16.80
2022-11-02T08:59:00.366Z,17.21
2022-11-02T09:04:01.946Z,17.05
2022-11-02T09:09:03.627Z,16.86
2022-11-02T09:14:05.284Z,16.97
2022-11-02T09:19:06.841Z,16.69
2022-11-02T09:24:08.800Z,16.67
2022-11-02T09:29:10.472Z,16.95
2022-11-02T09:34:12.173Z,16.78
2022-11-02T09:39:13.713Z,17.52
2022-11-02T09:44:25.585Z,17.59
2022-11-02T09:49:29.824Z,17.60
2022-11-02T09:54:36.755Z,17.63
2022-11-02T09:59:38.309Z,18.02
2022-11-02T10:04:55.037Z,17.84
2022-11-02T10:10:03.743Z,18.19
2022-11-02T10:15:22.511Z,18.56
2022-11-02T10:20:38.864Z,18.67
2022-11-02T10:25:40.737Z,18.23
2022-11-02T10:30:44.474Z,18.20
2022-11-02T10:36:16.831Z,18.57
2022-11-02T10:41:22.261Z,19.12
2022-11-02T10:46:53.944Z,18.82
2022-11-02T10:51:55.572Z,19.11
2022-11-02T10:56:58.925Z,19.59
2022-11-02T11:02:00.488Z,18.73
2022-11-02T11:07:16.711Z,18.62
2022-11-02T11:12:37.500Z,18.71
2022-11-02T11:23:22.235Z,18.82
2022-11-02T11:28:29.878Z,19.02
2022-11-02T11:33:32.365Z,19.27
2022-11-02T11:38:33.929Z,19.23
2022-11-02T11:43:37.093Z,19.49
2022-11-02T11:48:53.533Z,19.76
2022-11-02T11:54:22.548Z,19.42
2022-11-02T11:59:26.796Z,19.24
2022-11-02T12:04:31.173Z,19.19
2022-11-02T12:09:57.016Z,19.73
2022-11-02T12:15:06.979Z,19.42
2022-11-02T12:20:41.013Z,18.86
2022-11-02T12:26:10.152Z,18.46
2022-11-02T12:31:11.633Z,19.01
2022-11-02T12:36:16.005Z,18.76
2022-11-02T12:41:43.164Z,18.57
2022-11-02T12:46:58.440Z,19.56
2022-11-02T12:52:11.765Z,19.53
2022-11-02T12:57:17.786Z,18.41
2022-11-02T13:02:21.517Z,19.64
2022-11-02T13:07:29.763Z,20.37
2022-11-02T13:12:34.063Z,20.01
2022-11-02T13:17:40.920Z,19.77
2022-11-02T13:22:44.061Z,19.86
2022-11-02T13:28:05.741Z,19.31
2022-11-02T13:33:23.638Z,19.08
2022-11-02T13:38:34.801Z,18.68
2022-11-02T13:43:42.047Z,18.69
2022-11-02T13:49:04.256Z,18.20
2022-11-02T13:54:43.933Z,18.28
2022-11-02T13:59:45.646Z,18.49
2022-11-02T14:04:47.751Z,17.55
2022-11-02T14:09:49.984Z,17.69
2022-11-02T14:15:13.087Z,17.58
2022-11-02T14:20:32.968Z,17.64
2022-11-02T14:25:55.941Z,17.89
2022-11-02T14:31:03.272Z,17.58
2022-11-02T14:36:19.113Z,17.18
2022-11-02T14:41:58.048Z,16.89
2022-11-02T14:47:15.355Z,16.60
2022-11-02T14:52:33.039Z,16.24
2022-11-02T14:57:40.714Z,15.92
2022-11-02T15:02:43.560Z,16.05
2022-11-02T15:07:52.107Z,15.77
2022-11-02T15:13:19.114Z,15.91
2022-11-02T15:18:22.869Z,15.62
2022-11-02T15:23:31.694Z,15.42
2022-11-02T15:28:34.785Z,15.15
2022-11-02T15:33:45.574Z,14.90
2022-11-02T15:38:49.676Z,14.51
2022-11-02T15:44:09.628Z,14.38
2022-11-02T15:49:23.279Z,14.16
2022-11-02T15:54:46.443Z,13.96
2022-11-02T15:59:56.872Z,13.94
2022-11-02T16:05:01.552Z,14.02
2022-11-02T16:10:33.798Z,14.00
2022-11-02T16:15:35.724Z,14.02
2022-11-02T16:20:37.791Z,13.79
2022-11-02T16:25:43.268Z,13.49
2022-11-02T16:31:00.375Z,12.97
2022-11-02T16:36:02.273Z,12.92
2022-11-02T16:41:08.034Z,12.87
2022-11-02T16:46:09.667Z,12.56
2022-11-02T16:51:20.564Z,12.44
2022-11-02T16:56:30.114Z,12.46
2022-11-02T17:01:40.308Z,12.24
2022-11-02T17:06:42.556Z,12.19
2022-11-02T17:11:44.420Z,11.74
2022-11-02T17:17:25.492Z,11.32
2022-11-02T17:22:28.936Z,11.55
2022-11-02T17:27:31.946Z,11.65
2022-11-02T17:32:33.494Z,11.75
2022-11-02T17:37:35.120Z,11.66
2022-11-02T17:42:36.692Z,11.07
2022-11-02T17:47:38.233Z,10.97
2022-11-02T17:52:40.732Z,11.15
2022-11-02T17:57:42.271Z,11.10
2022-11-02T18:02:47.762Z,10.81
2022-11-02T18:07:49.749Z,10.67
2022-11-02T18:12:51.391Z,10.64
2022-11-02T18:17:53.106Z,10.64
2022-11-02T18:22:55.666Z,10.85
2022-11-02T18:27:58.614Z,10.82
2022-11-02T18:33:01.196Z,10.91
2022-11-02T18:38:03.168Z,10.72
2022-11-02T18:43:05.494Z,10.50
2022-11-02T18:48:07.463Z,10.66
2022-11-02T18:53:10.007Z,10.88
2022-11-02T18:58:11.604Z,10.85
2022-11-02T19:03:13.323Z,10.61
2022-11-02T19:08:14.824Z,10.70
2022-11-02T19:13:16.340Z,10.78
2022-11-02T19:18:17.867Z,10.47
2022-11-02T19:23:19.450Z,10.27
2022-11-02T19:28:20.940Z,10.03
2022-11-02T19:33:22.463Z,10.00
2022-11-02T19:38:24.747Z,10.05
2022-11-02T19:43:26.302Z,10.10
2022-11-02T19:48:29.387Z,10.04
2022-11-02T19:53:30.919Z,10.15
2022-11-02T19:58:32.731Z,10.01
2022-11-02T20:03:35.027Z,9.97
2022-11-02T20:08:36.696Z,9.89
2022-11-02T20:13:40.834Z,10.05
2022-11-02T20:18:43.984Z,10.11
2022-11-02T20:23:45.792Z,10.10
2022-11-02T20:28:48.266Z,9.96
2022-11-02T20:33:49.917Z,9.97
2022-11-02T20:38:51.866Z,9.95
2022-11-02T20:43:54.772Z,10.11
2022-11-02T20:48:56.932Z,10.11
2022-11-02T20:53:58.580Z,10.00
2022-11-02T20:59:00.180Z,9.94
2022-11-02T21:04:01.820Z,9.88
2022-11-02T21:09:05.064Z,9.85
2022-11-02T21:14:09.299Z,9.76
2022-11-02T21:19:10.894Z,9.77
2022-11-02T21:24:12.584Z,9.75
2022-11-02T21:29:14.129Z,9.62
2022-11-02T21:34:15.941Z,9.65
2022-11-02T21:39:17.542Z,9.55
2022-11-02T21:44:19.037Z,9.51
2022-11-02T21:49:20.668Z,9.47
2022-11-02T21:54:22.166Z,9.35
2022-11-02T21:59:23.671Z,9.54
2022-11-02T22:04:26.895Z,9.69
2022-11-02T22:09:28.565Z,9.67
2022-11-02T22:14:30.065Z,9.70
2022-11-02T22:19:31.878Z,9.73
2022-11-02T22:24:33.594Z,9.93
2022-11-02T22:29:35.296Z,9.89
2022-11-02T22:34:36.875Z,9.95
2022-11-02T22:39:38.479Z,9.87
2022-11-02T22:44:40.040Z,9.91
2022-11-02T22:49:41.602Z,9.96
2022-11-02T22:54:43.157Z,9.87
2022-11-02T22:59:44.689Z,9.72
2022-11-02T23:04:46.210Z,9.83
2022-11-02T23:09:47.783Z,9.94
2022-11-02T23:14:49.282Z,9.89
2022-11-02T23:19:50.882Z,9.97
2022-11-02T23:24:54.532Z,9.95
2022-11-02T23:29:56.204Z,10.00
2022-11-02T23:34:58.882Z,9.89
2022-11-02T23:40:00.449Z,9.80
2022-11-02T23:45:02.095Z,9.59
2022-11-02T23:50:03.804Z,9.69
2022-11-02T23:55:05.627Z,9.87
